createdAt,value
2024-04-21T00:01:15.019Z,5.04
2024-04-21T00:03:41.808Z,4.99
2024-04-21T00:06:08.278Z,4.97
2024-04-21T00:08:34.751Z,4.97
2024-04-21T00:11:01.456Z,5.04
2024-04-21T00:13:28.190Z,5.07
2024-04-21T00:15:54.906Z,5.16
2024-04-21T00:18:21.433Z,5.05
2024-04-21T00:20:47.963Z,4.98
2024-04-21T00:23:14.608Z,5.10
2024-04-21T00:25:41.088Z,5.08
2024-04-21T00:28:07.916Z,5.05
2024-04-21T00:30:34.529Z,5.06
2024-04-21T00:33:01.120Z,4.97
2024-04-21T00:35:27.602Z,5.25
2024-04-21T00:37:54.106Z,5.25
2024-04-21T00:40:24.081Z,5.49
2024-04-21T00:43:00.357Z,5.55
2024-04-21T00:45:31.928Z,5.51
2024-04-21T00:48:04.001Z,5.46
2024-04-21T00:50:32.129Z,5.42
2024-04-21T00:52:58.632Z,5.58
2024-04-21T00:55:25.430Z,5.60
2024-04-21T00:57:52.473Z,5.51
2024-04-21T01:00:19.919Z,5.53
2024-04-21T01:02:46.609Z,5.49
2024-04-21T01:05:13.289Z,5.58
2024-04-21T01:07:39.839Z,5.71
2024-04-21T01:10:06.655Z,5.58
2024-04-21T01:12:39.181Z,5.55
2024-04-21T01:15:05.920Z,5.57
2024-04-21T01:17:32.619Z,5.54
2024-04-21T01:19:59.224Z,5.66
2024-04-21T01:22:25.841Z,5.71
2024-04-21T01:24:52.361Z,5.77
2024-04-21T01:27:19.012Z,5.71
2024-04-21T01:29:45.506Z,5.64
2024-04-21T01:32:21.730Z,5.57
2024-04-21T01:34:48.720Z,5.51
2024-04-21T01:37:16.782Z,5.52
2024-04-21T01:39:43.554Z,5.39
2024-04-21T01:42:10.056Z,5.33
2024-04-21T01:44:36.827Z,5.63
2024-04-21T01:47:03.345Z,5.60
2024-04-21T01:49:29.841Z,5.52
2024-04-21T01:51:56.577Z,5.61
2024-04-21T01:54:23.027Z,5.57
2024-04-21T01:56:49.488Z,5.68
2024-04-21T01:59:16.120Z,5.78
2024-04-21T02:01:42.649Z,5.86
2024-04-21T02:04:09.232Z,5.81
2024-04-21T02:06:38.910Z,6.03
2024-04-21T02:09:05.367Z,6.11
2024-04-21T02:11:31.887Z,6.13
2024-04-21T02:13:58.496Z,6.04
2024-04-21T02:16:24.970Z,5.90
2024-04-21T02:18:51.668Z,5.93
2024-04-21T02:21:18.257Z,5.92
2024-04-21T02:23:50.818Z,5.85
2024-04-21T02:26:17.424Z,5.87
2024-04-21T02:28:44.210Z,5.98
2024-04-21T02:31:11.070Z,5.78
2024-04-21T02:33:37.776Z,5.84
2024-04-21T02:36:04.462Z,5.83
2024-04-21T02:38:32.612Z,5.74
2024-04-21T02:40:59.323Z,5.79
2024-04-21T02:43:25.837Z,5.71
2024-04-21T02:45:52.583Z,5.65
2024-04-21T02:48:19.088Z,5.68
2024-04-21T02:50:46.429Z,5.52
2024-04-21T02:53:13.126Z,5.63
2024-04-21T02:55:43.661Z,5.52
2024-04-21T02:58:10.236Z,5.57
2024-04-21T03:00:40.487Z,5.76
2024-04-21T03:03:07.312Z,5.81
2024-04-21T03:05:33.918Z,5.94
2024-04-21T03:08:00.576Z,6.04
2024-04-21T03:10:27.150Z,6.03
2024-04-21T03:12:53.767Z,6.01
2024-04-21T03:15:20.461Z,6.14
2024-04-21T03:17:47.060Z,5.91
2024-04-21T03:20:13.548Z,6.09
2024-04-21T03:22:40.220Z,6.10
2024-04-21T03:25:06.968Z,5.86
2024-04-21T03:27:33.487Z,5.78
2024-04-21T03:30:00.165Z,5.83
2024-04-21T03:32:26.842Z,5.74
2024-04-21T03:34:54.258Z,5.80
2024-04-21T03:37:20.953Z,5.78
2024-04-21T03:39:47.433Z,5.66
2024-04-21T03:42:13.969Z,5.70
2024-04-21T03:44:40.576Z,5.72
2024-04-21T03:47:07.059Z,5.71
2024-04-21T03:49:33.518Z,5.60
2024-04-21T03:52:00.325Z,5.24
2024-04-21T03:54:26.843Z,5.06
2024-04-21T03:56:53.306Z,4.99
2024-04-21T03:59:19.927Z,5.08
2024-04-21T04:01:46.746Z,4.98
2024-04-21T04:04:13.265Z,4.96
2024-04-21T04:06:39.915Z,4.74
2024-04-21T04:09:06.505Z,4.82
2024-04-21T04:11:32.979Z,4.66
2024-04-21T04:13:59.594Z,4.77
2024-04-21T04:16:26.108Z,4.79
2024-04-21T04:18:52.600Z,4.59
2024-04-21T04:21:19.238Z,4.58
2024-04-21T04:23:45.711Z,4.43
2024-04-21T04:26:12.248Z,4.43
2024-04-21T04:28:39.811Z,4.42
2024-04-21T04:31:06.376Z,4.40
2024-04-21T04:33:33.098Z,4.34
2024-04-21T04:35:59.848Z,4.31
2024-04-21T04:38:26.294Z,4.37
2024-04-21T04:40:52.742Z,4.49
2024-04-21T04:43:19.569Z,4.36
2024-04-21T04:45:46.196Z,4.42
2024-04-21T04:48:12.714Z,4.29
2024-04-21T04:50:39.334Z,4.29
2024-04-21T04:53:05.936Z,4.25
2024-04-21T04:55:32.432Z,4.31
2024-04-21T04:57:59.180Z,4.29
2024-04-21T05:00:25.696Z,4.28
2024-04-21T05:02:52.182Z,4.27
2024-04-21T05:05:18.971Z,4.21
2024-04-21T05:07:45.422Z,4.22
2024-04-21T05:10:11.924Z,4.16
2024-04-21T05:12:39.259Z,4.13
2024-04-21T05:15:06.330Z,4.10
2024-04-21T05:17:32.824Z,4.07
2024-04-21T05:19:59.514Z,4.39
2024-04-21T05:22:26.052Z,4.45
2024-04-21T05:24:52.548Z,4.57
2024-04-21T05:27:19.304Z,4.85
2024-04-21T05:29:45.792Z,4.93
2024-04-21T05:32:12.264Z,4.99
2024-04-21T05:34:38.984Z,4.92
2024-04-21T05:37:05.463Z,4.96
2024-04-21T05:39:31.957Z,4.91
2024-04-21T05:41:58.681Z,4.95
2024-04-21T05:44:25.153Z,4.97
2024-04-21T05:46:51.589Z,4.99
2024-04-21T05:49:21.042Z,4.98
2024-04-21T05:51:47.696Z,5.01
2024-04-21T05:54:14.169Z,5.00
2024-04-21T05:56:40.768Z,5.01
2024-04-21T05:59:07.245Z,5.07
2024-04-21T06:01:34.299Z,5.07
2024-04-21T06:04:01.304Z,5.46
2024-04-21T06:06:27.833Z,5.18
2024-04-21T06:08:54.292Z,5.46
2024-04-21T06:11:20.924Z,5.45
2024-04-21T06:13:47.398Z,5.66
2024-04-21T06:16:14.069Z,5.59
2024-04-21T06:18:42.714Z,5.92
2024-04-21T06:21:10.899Z,5.88
2024-04-21T06:23:37.472Z,5.86
2024-04-21T06:26:04.233Z,6.05
2024-04-21T06:28:32.573Z,6.10
2024-04-21T06:30:59.092Z,6.33
2024-04-21T06:33:25.596Z,6.41
2024-04-21T06:35:52.243Z,6.55
2024-04-21T06:38:18.703Z,6.93
2024-04-21T06:40:45.504Z,6.80
2024-04-21T06:43:12.036Z,6.81
2024-04-21T06:45:42.809Z,7.16
2024-04-21T06:48:09.528Z,6.95
2024-04-21T06:50:36.560Z,7.09
2024-04-21T06:53:03.201Z,7.43
2024-04-21T06:55:29.716Z,7.50
2024-04-21T06:57:56.309Z,7.44
2024-04-21T07:00:22.911Z,7.40
2024-04-21T07:02:49.372Z,7.32
2024-04-21T07:05:16.005Z,7.25
2024-04-21T07:07:42.507Z,7.05
2024-04-21T07:10:09.021Z,7.07
2024-04-21T07:12:35.630Z,7.19
2024-04-21T07:15:02.167Z,7.34
2024-04-21T07:17:28.769Z,7.61
2024-04-21T07:19:55.408Z,7.01
2024-04-21T07:22:21.933Z,7.35
2024-04-21T07:24:48.451Z,6.76
2024-04-21T07:27:14.916Z,6.88
2024-04-21T07:29:42.145Z,6.98
2024-04-21T07:32:08.772Z,6.77
2024-04-21T07:34:35.338Z,6.86
2024-04-21T07:37:03.922Z,6.79
2024-04-21T07:39:30.688Z,6.77
2024-04-21T07:41:57.303Z,6.90
2024-04-21T07:44:23.905Z,6.95
2024-04-21T07:46:50.375Z,6.96
2024-04-21T07:49:16.894Z,7.05
2024-04-21T07:51:43.587Z,7.40
2024-04-21T07:54:10.000Z,7.34
2024-04-21T07:56:36.584Z,7.43
2024-04-21T07:59:03.064Z,7.43
2024-04-21T08:01:29.602Z,7.70
2024-04-21T08:03:56.518Z,7.54
2024-04-21T08:06:23.685Z,7.75
2024-04-21T08:08:55.664Z,8.06
2024-04-21T08:11:27.854Z,7.81
2024-04-21T08:13:54.493Z,7.76
2024-04-21T08:16:20.983Z,7.97
2024-04-21T08:18:47.606Z,7.94
2024-04-21T08:21:14.254Z,8.11
2024-04-21T08:23:40.723Z,8.17
2024-04-21T08:26:07.320Z,8.10
2024-04-21T08:28:33.850Z,7.92
2024-04-21T08:31:00.458Z,7.63
2024-04-21T08:33:27.689Z,7.85
2024-04-21T08:35:55.337Z,8.04
2024-04-21T08:38:22.482Z,8.36
2024-04-21T08:40:49.844Z,8.66
2024-04-21T08:43:22.434Z,8.52
2024-04-21T08:45:50.772Z,8.62
2024-04-21T08:48:18.489Z,8.43
2024-04-21T08:50:46.717Z,8.70
2024-04-21T08:53:13.598Z,8.78
2024-04-21T08:55:41.687Z,8.93
2024-04-21T08:58:09.309Z,9.09
2024-04-21T09:00:35.908Z,8.87
2024-04-21T09:03:02.598Z,8.92
2024-04-21T09:05:29.350Z,9.57
2024-04-21T09:07:57.552Z,9.47
2024-04-21T09:10:24.267Z,9.70
2024-04-21T09:12:51.386Z,9.04
2024-04-21T09:15:18.278Z,8.60
2024-04-21T09:17:45.076Z,8.29
2024-04-21T09:20:11.677Z,8.46
2024-04-21T09:22:38.814Z,8.62
2024-04-21T09:25:05.803Z,9.02
2024-04-21T09:27:32.916Z,9.16
2024-04-21T09:29:59.433Z,9.04
2024-04-21T09:32:29.608Z,9.19
2024-04-21T09:34:58.754Z,8.80
2024-04-21T09:37:26.400Z,8.48
2024-04-21T09:39:53.249Z,8.42
2024-04-21T09:42:20.658Z,8.44
2024-04-21T09:44:50.522Z,8.42
2024-04-21T09:47:17.840Z,8.82
2024-04-21T09:49:44.714Z,9.06
2024-04-21T09:52:12.835Z,9.55
2024-04-21T09:54:39.798Z,9.44
2024-04-21T09:57:13.294Z,9.03
2024-04-21T09:59:40.096Z,9.32
2024-04-21T10:02:12.353Z,9.46
2024-04-21T10:04:41.595Z,10.09
2024-04-21T10:07:08.166Z,10.29
2024-04-21T10:09:38.107Z,10.11
2024-04-21T10:12:04.936Z,9.33
2024-04-21T10:14:31.724Z,8.95
2024-04-21T10:16:58.903Z,8.68
2024-04-21T10:19:27.095Z,8.08
2024-04-21T10:21:54.135Z,7.67
2024-04-21T10:24:21.231Z,7.75
2024-04-21T10:26:47.907Z,7.99
2024-04-21T10:29:14.357Z,8.33
2024-04-21T10:31:40.821Z,8.26
2024-04-21T10:34:11.130Z,8.31
2024-04-21T10:36:47.509Z,8.45
2024-04-21T10:39:24.237Z,8.57
2024-04-21T10:41:52.342Z,8.51
2024-04-21T10:44:18.896Z,8.14
2024-04-21T10:46:45.563Z,8.35
2024-04-21T10:49:12.134Z,8.28
2024-04-21T10:51:38.693Z,8.14
2024-04-21T10:54:08.702Z,7.65
2024-04-21T10:56:37.967Z,7.85
2024-04-21T10:59:06.663Z,7.98
2024-04-21T11:01:33.287Z,8.23
2024-04-21T11:04:02.291Z,8.05
2024-04-21T11:06:28.848Z,7.92
2024-04-21T11:08:55.768Z,8.17
2024-04-21T11:11:22.571Z,7.97
2024-04-21T11:13:52.259Z,7.80
2024-04-21T11:16:20.327Z,7.92
2024-04-21T11:18:47.147Z,7.81
2024-04-21T11:21:13.637Z,8.04
2024-04-21T11:23:40.611Z,7.78
2024-04-21T11:26:11.228Z,8.10
2024-04-21T11:28:37.702Z,8.39
2024-04-21T11:31:06.429Z,8.26
2024-04-21T11:33:34.487Z,8.24
2024-04-21T11:36:02.429Z,8.25
2024-04-21T11:38:30.167Z,8.47
2024-04-21T11:40:57.007Z,8.90
2024-04-21T11:43:23.527Z,8.48
2024-04-21T11:45:50.310Z,8.40
2024-04-21T11:48:16.951Z,8.69
2024-04-21T11:50:43.722Z,8.60
2024-04-21T11:53:10.192Z,8.22
2024-04-21T11:55:36.975Z,8.27
2024-04-21T11:58:03.702Z,8.18
2024-04-21T12:00:30.463Z,8.31
2024-04-21T12:02:57.045Z,8.19
2024-04-21T12:05:23.674Z,8.07
2024-04-21T12:07:50.164Z,8.25
2024-04-21T12:10:16.814Z,8.31
2024-04-21T12:12:44.006Z,8.77
2024-04-21T12:15:10.738Z,8.94
2024-04-21T12:17:37.272Z,8.62
2024-04-21T12:20:03.978Z,8.30
2024-04-21T12:22:30.526Z,8.14
2024-04-21T12:24:57.276Z,8.17
2024-04-21T12:27:23.841Z,8.02
2024-04-21T12:29:50.293Z,8.20
2024-04-21T12:32:16.965Z,7.98
2024-04-21T12:34:44.051Z,8.71
2024-04-21T12:37:10.532Z,8.90
2024-04-21T12:39:37.211Z,8.59
2024-04-21T12:42:04.116Z,8.40
2024-04-21T12:44:30.756Z,8.17
2024-04-21T12:46:57.594Z,8.77
2024-04-21T12:49:24.226Z,8.66
2024-04-21T12:51:51.248Z,8.45
2024-04-21T12:54:20.727Z,8.35
2024-04-21T12:56:47.946Z,8.70
2024-04-21T12:59:14.555Z,8.94
2024-04-21T13:01:41.123Z,9.11
2024-04-21T13:04:09.385Z,9.24
2024-04-21T13:06:35.989Z,8.84
2024-04-21T13:09:02.572Z,8.84
2024-04-21T13:11:29.083Z,8.91
2024-04-21T13:13:55.698Z,8.46
2024-04-21T13:16:22.288Z,8.34
2024-04-21T13:18:49.015Z,8.46
2024-04-21T13:21:15.594Z,8.51
2024-04-21T13:23:43.435Z,8.45
2024-04-21T13:26:10.080Z,9.08
2024-04-21T13:28:36.678Z,9.33
2024-04-21T13:31:03.357Z,10.20
2024-04-21T13:33:30.136Z,10.27
2024-04-21T13:35:56.883Z,9.59
2024-04-21T13:38:23.351Z,9.26
2024-04-21T13:40:50.013Z,9.25
2024-04-21T13:43:16.637Z,9.52
2024-04-21T13:45:43.358Z,9.71
2024-04-21T13:48:10.729Z,9.61
2024-04-21T13:50:37.271Z,9.62
2024-04-21T13:53:04.009Z,9.67
2024-04-21T13:55:30.572Z,9.62
2024-04-21T13:57:57.272Z,9.07
2024-04-21T14:00:24.989Z,9.20
2024-04-21T14:02:51.507Z,9.69
2024-04-21T14:05:18.110Z,9.49
2024-04-21T14:07:44.624Z,9.50
2024-04-21T14:10:11.150Z,9.55
2024-04-21T14:12:37.709Z,9.19
2024-04-21T14:15:04.452Z,8.91
2024-04-21T14:17:31.089Z,8.42
2024-04-21T14:19:57.647Z,9.00
2024-04-21T14:22:24.443Z,9.74
2024-04-21T14:24:51.049Z,9.73
2024-04-21T14:27:17.617Z,9.69
2024-04-21T14:29:46.679Z,9.73
2024-04-21T14:32:15.574Z,9.43
2024-04-21T14:34:42.084Z,9.05
2024-04-21T14:37:08.787Z,9.54
2024-04-21T14:39:35.289Z,9.67
2024-04-21T14:42:03.406Z,9.85
2024-04-21T14:44:30.079Z,9.89
2024-04-21T14:46:57.440Z,9.89
2024-04-21T14:49:24.098Z,9.44
2024-04-21T14:51:50.822Z,8.86
2024-04-21T14:54:17.348Z,8.54
2024-04-21T14:56:43.952Z,8.68
2024-04-21T14:59:11.175Z,8.95
2024-04-21T15:01:38.440Z,9.67
2024-04-21T15:04:05.060Z,9.83
2024-04-21T15:06:31.752Z,9.68
2024-04-21T15:09:01.486Z,10.14
2024-04-21T15:11:28.380Z,10.32
2024-04-21T15:13:58.254Z,10.35
2024-04-21T15:16:25.371Z,9.35
2024-04-21T15:18:51.857Z,9.54
2024-04-21T15:21:18.464Z,9.00
2024-04-21T15:23:44.914Z,9.10
2024-04-21T15:26:11.561Z,9.26
2024-04-21T15:28:38.281Z,8.92
2024-04-21T15:31:07.073Z,9.07
2024-04-21T15:33:34.082Z,9.12
2024-04-21T15:36:00.994Z,9.33
2024-04-21T15:38:27.487Z,9.52
2024-04-21T15:40:53.953Z,9.80
2024-04-21T15:43:20.611Z,10.10
2024-04-21T15:45:47.078Z,9.92
2024-04-21T15:48:13.547Z,10.15
2024-04-21T15:50:40.286Z,9.98
2024-04-21T15:53:06.750Z,9.66
2024-04-21T15:55:33.696Z,9.79
2024-04-21T15:58:00.565Z,9.60
2024-04-21T16:00:27.053Z,9.04
2024-04-21T16:02:53.620Z,8.57
2024-04-21T16:05:20.293Z,8.50
2024-04-21T16:07:46.794Z,8.59
2024-04-21T16:10:13.302Z,8.74
2024-04-21T16:12:41.430Z,9.00
2024-04-21T16:15:09.500Z,9.44
2024-04-21T16:17:36.178Z,10.57
2024-04-21T16:20:02.958Z,11.70
2024-04-21T16:22:29.468Z,13.25
2024-04-21T16:24:55.994Z,12.98
2024-04-21T16:27:23.019Z,12.72
2024-04-21T16:29:49.760Z,11.96
2024-04-21T16:32:16.458Z,12.16
2024-04-21T16:34:43.624Z,12.31
2024-04-21T16:37:12.715Z,13.09
2024-04-21T16:39:39.602Z,13.40
2024-04-21T16:42:06.813Z,13.70
2024-04-21T16:44:33.663Z,13.26
2024-04-21T16:47:00.536Z,13.58
2024-04-21T16:49:31.034Z,14.66
2024-04-21T16:52:01.418Z,14.23
2024-04-21T16:54:28.889Z,13.76
2024-04-21T16:57:06.969Z,14.12
2024-04-21T16:59:41.413Z,13.98
2024-04-21T17:02:08.473Z,13.57
2024-04-21T17:04:36.643Z,13.83
2024-04-21T17:07:04.727Z,13.88
2024-04-21T17:09:32.003Z,14.06
2024-04-21T17:12:00.064Z,13.51
2024-04-21T17:14:26.873Z,12.33
2024-04-21T17:16:54.512Z,11.80
2024-04-21T17:19:25.144Z,10.81
2024-04-21T17:21:51.799Z,10.10
2024-04-21T17:24:18.757Z,9.28
2024-04-21T17:26:45.695Z,9.02
2024-04-21T17:29:12.491Z,8.89
2024-04-21T17:31:39.503Z,8.73
2024-04-21T17:34:06.287Z,8.56
2024-04-21T17:36:32.884Z,8.53
2024-04-21T17:39:02.544Z,8.46
2024-04-21T17:41:29.022Z,8.45
2024-04-21T17:43:55.504Z,8.52
2024-04-21T17:46:22.397Z,8.54
2024-04-21T17:48:49.208Z,8.45
2024-04-21T17:51:16.608Z,8.42
2024-04-21T17:53:43.261Z,8.38
2024-04-21T17:56:09.994Z,8.37
2024-04-21T17:58:36.757Z,8.42
2024-04-21T18:01:07.397Z,8.39
2024-04-21T18:03:33.975Z,8.41
2024-04-21T18:06:07.218Z,8.26
2024-04-21T18:08:34.108Z,8.27
2024-04-21T18:11:00.697Z,8.36
2024-04-21T18:13:27.240Z,8.15
2024-04-21T18:15:54.026Z,8.08
2024-04-21T18:18:20.499Z,7.95
2024-04-21T18:20:47.009Z,7.95
2024-04-21T18:23:13.779Z,7.92
2024-04-21T18:25:40.454Z,7.92
2024-04-21T18:28:07.193Z,7.83
2024-04-21T18:30:36.618Z,7.82
2024-04-21T18:33:03.324Z,7.74
2024-04-21T18:35:30.219Z,7.70
2024-04-21T18:37:58.310Z,7.65
2024-04-21T18:40:24.944Z,7.63
2024-04-21T18:42:51.583Z,7.57
2024-04-21T18:45:18.077Z,7.40
2024-04-21T18:47:44.756Z,7.34
2024-04-21T18:50:11.331Z,7.31
2024-04-21T18:52:38.047Z,7.25
2024-04-21T18:55:05.728Z,7.22
2024-04-21T18:57:32.489Z,7.16
2024-04-21T18:59:59.072Z,7.01
2024-04-21T19:02:25.770Z,6.88
2024-04-21T19:04:52.254Z,6.82
2024-04-21T19:07:18.766Z,6.87
2024-04-21T19:09:45.712Z,6.73
2024-04-21T19:12:12.645Z,6.66
2024-04-21T19:14:39.340Z,6.58
2024-04-21T19:17:07.689Z,6.59
2024-04-21T19:19:35.088Z,6.60
2024-04-21T19:22:01.783Z,6.49
2024-04-21T19:24:28.464Z,6.47
2024-04-21T19:26:55.043Z,6.53
2024-04-21T19:29:21.553Z,6.47
2024-04-21T19:31:48.229Z,6.40
2024-04-21T19:34:14.747Z,6.25
2024-04-21T19:36:41.222Z,6.12
2024-04-21T19:39:07.826Z,6.01
2024-04-21T19:41:34.472Z,5.89
2024-04-21T19:44:01.406Z,6.09
2024-04-21T19:46:27.960Z,6.04
2024-04-21T19:48:54.470Z,5.84
2024-04-21T19:51:21.215Z,5.73
2024-04-21T19:53:47.969Z,5.71
2024-04-21T19:56:15.576Z,5.71
2024-04-21T19:58:42.225Z,5.73
2024-04-21T20:01:09.006Z,5.80
2024-04-21T20:03:35.718Z,5.84
2024-04-21T20:06:04.197Z,5.81
2024-04-21T20:08:30.882Z,5.58
2024-04-21T20:10:57.368Z,5.35
2024-04-21T20:13:23.980Z,5.25
2024-04-21T20:16:12.742Z,5.20
2024-04-21T20:18:44.952Z,5.13
2024-04-21T20:21:11.793Z,5.12
2024-04-21T20:23:38.382Z,5.06
2024-04-21T20:26:07.504Z,4.90
2024-04-21T20:28:34.072Z,4.73
2024-04-21T20:31:01.031Z,4.65
2024-04-21T20:33:27.616Z,4.62
2024-04-21T20:35:54.133Z,4.63
2024-04-21T20:38:20.714Z,4.59
2024-04-21T20:40:47.957Z,4.55
2024-04-21T20:43:14.693Z,4.49
2024-04-21T20:45:41.161Z,4.46
2024-04-21T20:48:07.763Z,4.32
2024-04-21T20:50:35.000Z,4.29
2024-04-21T20:53:01.720Z,4.27
2024-04-21T20:55:28.429Z,4.47
2024-04-21T20:57:55.100Z,4.54
2024-04-21T21:00:21.631Z,4.55
2024-04-21T21:02:48.335Z,4.43
2024-04-21T21:05:15.084Z,4.42
2024-04-21T21:07:41.619Z,4.19
2024-04-21T21:10:08.244Z,4.03
2024-04-21T21:12:34.784Z,4.09
2024-04-21T21:15:01.959Z,4.04
2024-04-21T21:17:29.846Z,4.10
2024-04-21T21:19:56.346Z,4.44
2024-04-21T21:22:23.034Z,4.52
2024-04-21T21:24:49.492Z,4.43
2024-04-21T21:27:16.157Z,4.39
2024-04-21T21:29:43.934Z,4.20
2024-04-21T21:32:10.707Z,4.32
2024-04-21T21:34:37.421Z,4.33
2024-04-21T21:37:04.029Z,4.15
2024-04-21T21:39:30.649Z,4.55
2024-04-21T21:41:57.282Z,4.61
2024-04-21T21:44:26.157Z,4.39
2024-04-21T21:46:52.736Z,4.24
2024-04-21T21:49:19.246Z,4.34
2024-04-21T21:51:46.039Z,4.28
2024-04-21T21:54:12.494Z,4.41
2024-04-21T21:56:38.972Z,4.36
2024-04-21T21:59:05.636Z,4.31
2024-04-21T22:01:32.214Z,4.34
2024-04-21T22:03:59.012Z,4.36
2024-04-21T22:06:26.517Z,4.61
2024-04-21T22:08:53.135Z,4.67
2024-04-21T22:11:19.672Z,4.67
2024-04-21T22:13:49.235Z,4.44
2024-04-21T22:16:16.127Z,4.23
2024-04-21T22:18:42.698Z,4.17
2024-04-21T22:21:09.321Z,4.02
2024-04-21T22:23:35.791Z,3.90
2024-04-21T22:26:02.395Z,3.81
2024-04-21T22:28:28.895Z,3.76
2024-04-21T22:30:55.360Z,3.55
2024-04-21T22:33:22.114Z,3.57
2024-04-21T22:35:55.298Z,3.43
2024-04-21T22:38:21.953Z,3.31
2024-04-21T22:41:04.585Z,3.35
2024-04-21T22:43:31.792Z,3.21
2024-04-21T22:46:00.562Z,3.31
2024-04-21T22:48:27.136Z,3.25
2024-04-21T22:50:54.218Z,3.17
2024-04-21T22:53:21.378Z,3.22
2024-04-21T22:55:48.148Z,3.23
2024-04-21T22:58:14.711Z,3.10
2024-04-21T23:00:41.704Z,3.10
2024-04-21T23:03:08.539Z,3.00
2024-04-21T23:05:37.258Z,2.82
2024-04-21T23:08:04.260Z,2.79
2024-04-21T23:10:32.943Z,2.81
2024-04-21T23:13:06.416Z,2.87
2024-04-21T23:15:33.250Z,2.87
2024-04-21T23:17:59.777Z,3.02
2024-04-21T23:20:26.413Z,3.15
2024-04-21T23:22:52.882Z,3.00
2024-04-21T23:25:19.564Z,3.10
2024-04-21T23:27:46.057Z,3.14
2024-04-21T23:30:12.565Z,3.07
2024-04-21T23:32:39.243Z,2.91
2024-04-21T23:35:05.781Z,2.73
2024-04-21T23:37:32.442Z,2.56
2024-04-21T23:39:58.923Z,2.54
2024-04-21T23:42:25.551Z,2.57
2024-04-21T23:44:52.145Z,2.53
2024-04-21T23:47:18.636Z,2.53
2024-04-21T23:49:45.299Z,2.57
2024-04-21T23:52:11.756Z,2.58
2024-04-21T23:54:38.220Z,2.50
2024-04-21T23:57:04.991Z,2.46
2024-04-21T23:59:32.107Z,2.38
